sensor_id;sensor_type;location;lat;lon;timestamp;P1;durP1;ratioP1;P2;durP2;ratioP2
55692;SDS011;41590;53.366;5.212;2023-11-19T00:01:41;87.43;;;11.07;;
55692;SDS011;41590;53.366;5.212;2023-11-19T00:04:08;78.53;;;9.32;;
55692;SDS011;41590;53.366;5.212;2023-11-19T00:06:35;56.08;;;6.78;;
55692;SDS011;41590;53.366;5.212;2023-11-19T00:09:07;60.13;;;7.68;;
55692;SDS011;41590;53.366;5.212;2023-11-19T00:11:40;74.43;;;10.73;;
55692;SDS011;41590;53.366;5.212;2023-11-19T00:16:43;76.25;;;9.63;;
55692;SDS011;41590;53.366;5.212;2023-11-19T00:19:09;73.50;;;9.68;;
55692;SDS011;41590;53.366;5.212;2023-11-19T00:21:36;88.00;;;11.48;;
55692;SDS011;41590;53.366;5.212;2023-11-19T00:24:04;94.15;;;10.43;;
55692;SDS011;41590;53.366;5.212;2023-11-19T00:29:05;70.35;;;9.57;;
55692;SDS011;41590;53.366;5.212;2023-11-19T00:31:32;77.97;;;10.50;;
55692;SDS011;41590;53.366;5.212;2023-11-19T00:34:06;66.68;;;8.55;;
55692;SDS011;41590;53.366;5.212;2023-11-19T00:36:33;56.28;;;8.18;;
55692;SDS011;41590;53.366;5.212;2023-11-19T00:38:59;71.57;;;9.23;;
55692;SDS011;41590;53.366;5.212;2023-11-19T00:44:12;74.63;;;8.75;;
55692;SDS011;41590;53.366;5.212;2023-11-19T00:46:38;63.65;;;8.70;;
55692;SDS011;41590;53.366;5.212;2023-11-19T00:49:21;68.93;;;8.10;;
55692;SDS011;41590;53.366;5.212;2023-11-19T00:51:51;69.47;;;8.43;;
55692;SDS011;41590;53.366;5.212;2023-11-19T00:56:56;69.43;;;9.65;;
55692;SDS011;41590;53.366;5.212;2023-11-19T00:59:30;64.53;;;8.13;;
55692;SDS011;41590;53.366;5.212;2023-11-19T01:04:34;59.38;;;8.60;;
55692;SDS011;41590;53.366;5.212;2023-11-19T01:07:05;43.42;;;6.35;;
55692;SDS011;41590;53.366;5.212;2023-11-19T01:09:38;69.40;;;9.00;;
55692;SDS011;41590;53.366;5.212;2023-11-19T01:12:06;69.35;;;8.73;;
55692;SDS011;41590;53.366;5.212;2023-11-19T01:14:37;62.90;;;9.18;;
55692;SDS011;41590;53.366;5.212;2023-11-19T01:19:48;58.60;;;8.85;;
55692;SDS011;41590;53.366;5.212;2023-11-19T01:22:15;57.92;;;8.85;;
55692;SDS011;41590;53.366;5.212;2023-11-19T01:24:41;59.50;;;9.30;;
55692;SDS011;41590;53.366;5.212;2023-11-19T01:27:25;56.20;;;8.27;;
55692;SDS011;41590;53.366;5.212;2023-11-19T01:29:52;55.38;;;8.50;;
55692;SDS011;41590;53.366;5.212;2023-11-19T01:32:18;57.25;;;7.70;;
55692;SDS011;41590;53.366;5.212;2023-11-19T01:34:49;65.18;;;8.18;;
55692;SDS011;41590;53.366;5.212;2023-11-19T01:37:20;64.05;;;7.80;;
55692;SDS011;41590;53.366;5.212;2023-11-19T01:39:47;81.07;;;9.45;;
55692;SDS011;41590;53.366;5.212;2023-11-19T01:42:16;37.90;;;6.57;;
55692;SDS011;41590;53.366;5.212;2023-11-19T01:44:53;68.97;;;9.32;;
55692;SDS011;41590;53.366;5.212;2023-11-19T01:47:21;62.20;;;10.05;;
55692;SDS011;41590;53.366;5.212;2023-11-19T01:49:48;59.20;;;8.13;;
55692;SDS011;41590;53.366;5.212;2023-11-19T01:52:15;65.43;;;10.20;;
55692;SDS011;41590;53.366;5.212;2023-11-19T01:54:46;55.72;;;7.50;;
55692;SDS011;41590;53.366;5.212;2023-11-19T01:57:14;36.55;;;6.70;;
55692;SDS011;41590;53.366;5.212;2023-11-19T01:59:42;67.57;;;9.07;;
55692;SDS011;41590;53.366;5.212;2023-11-19T02:02:09;55.85;;;6.72;;
55692;SDS011;41590;53.366;5.212;2023-11-19T02:04:37;70.15;;;9.70;;
55692;SDS011;41590;53.366;5.212;2023-11-19T02:07:04;58.78;;;8.57;;
55692;SDS011;41590;53.366;5.212;2023-11-19T02:09:31;67.50;;;10.18;;
55692;SDS011;41590;53.366;5.212;2023-11-19T02:12:01;58.10;;;8.18;;
55692;SDS011;41590;53.366;5.212;2023-11-19T02:14:33;54.67;;;6.85;;
55692;SDS011;41590;53.366;5.212;2023-11-19T02:17:00;60.40;;;7.57;;
55692;SDS011;41590;53.366;5.212;2023-11-19T02:19:29;69.28;;;10.30;;
55692;SDS011;41590;53.366;5.212;2023-11-19T02:21:57;72.25;;;8.85;;
55692;SDS011;41590;53.366;5.212;2023-11-19T02:24:25;46.15;;;6.53;;
55692;SDS011;41590;53.366;5.212;2023-11-19T02:26:58;72.35;;;9.02;;
55692;SDS011;41590;53.366;5.212;2023-11-19T02:29:30;55.70;;;6.90;;
55692;SDS011;41590;53.366;5.212;2023-11-19T02:32:02;52.00;;;7.38;;
55692;SDS011;41590;53.366;5.212;2023-11-19T02:34:30;57.83;;;9.65;;
55692;SDS011;41590;53.366;5.212;2023-11-19T02:36:57;50.92;;;7.20;;
55692;SDS011;41590;53.366;5.212;2023-11-19T02:42:10;53.17;;;8.52;;
55692;SDS011;41590;53.366;5.212;2023-11-19T02:44:37;67.40;;;9.10;;
55692;SDS011;41590;53.366;5.212;2023-11-19T02:47:05;53.63;;;7.53;;
55692;SDS011;41590;53.366;5.212;2023-11-19T02:49:36;64.43;;;8.70;;
55692;SDS011;41590;53.366;5.212;2023-11-19T02:52:03;60.25;;;8.50;;
55692;SDS011;41590;53.366;5.212;2023-11-19T02:57:04;61.67;;;8.50;;
55692;SDS011;41590;53.366;5.212;2023-11-19T02:59:33;53.67;;;7.85;;
55692;SDS011;41590;53.366;5.212;2023-11-19T03:02:05;57.80;;;9.15;;
55692;SDS011;41590;53.366;5.212;2023-11-19T03:04:42;51.75;;;7.82;;
55692;SDS011;41590;53.366;5.212;2023-11-19T03:07:09;45.33;;;6.63;;
55692;SDS011;41590;53.366;5.212;2023-11-19T03:12:07;58.47;;;7.38;;
55692;SDS011;41590;53.366;5.212;2023-11-19T03:14:34;60.85;;;9.35;;
55692;SDS011;41590;53.366;5.212;2023-11-19T03:17:09;56.28;;;8.43;;
55692;SDS011;41590;53.366;5.212;2023-11-19T03:19:37;55.65;;;9.75;;
55692;SDS011;41590;53.366;5.212;2023-11-19T03:22:05;60.15;;;9.27;;
55692;SDS011;41590;53.366;5.212;2023-11-19T03:24:44;69.78;;;9.60;;
55692;SDS011;41590;53.366;5.212;2023-11-19T03:27:12;48.20;;;8.23;;
55692;SDS011;41590;53.366;5.212;2023-11-19T03:29:43;60.03;;;8.85;;
55692;SDS011;41590;53.366;5.212;2023-11-19T03:32:23;51.65;;;7.10;;
55692;SDS011;41590;53.366;5.212;2023-11-19T03:34:49;64.07;;;9.40;;
55692;SDS011;41590;53.366;5.212;2023-11-19T03:37:16;64.55;;;8.95;;
55692;SDS011;41590;53.366;5.212;2023-11-19T03:42:30;63.17;;;9.02;;
55692;SDS011;41590;53.366;5.212;2023-11-19T03:47:37;62.30;;;9.20;;
55692;SDS011;41590;53.366;5.212;2023-11-19T03:50:05;59.95;;;8.10;;
55692;SDS011;41590;53.366;5.212;2023-11-19T03:52:33;59.72;;;8.45;;
55692;SDS011;41590;53.366;5.212;2023-11-19T03:55:08;66.65;;;8.57;;
55692;SDS011;41590;53.366;5.212;2023-11-19T03:57:36;55.13;;;8.65;;
55692;SDS011;41590;53.366;5.212;2023-11-19T04:00:05;59.42;;;9.10;;
55692;SDS011;41590;53.366;5.212;2023-11-19T04:02:41;49.65;;;8.52;;
55692;SDS011;41590;53.366;5.212;2023-11-19T04:05:09;62.53;;;9.38;;
55692;SDS011;41590;53.366;5.212;2023-11-19T04:07:35;62.05;;;9.05;;
55692;SDS011;41590;53.366;5.212;2023-11-19T04:10:07;55.80;;;9.13;;
55692;SDS011;41590;53.366;5.212;2023-11-19T04:15:21;67.28;;;10.02;;
55692;SDS011;41590;53.366;5.212;2023-11-19T04:17:47;68.65;;;8.88;;
55692;SDS011;41590;53.366;5.212;2023-11-19T04:20:13;61.78;;;10.27;;
55692;SDS011;41590;53.366;5.212;2023-11-19T04:22:43;51.10;;;8.05;;
55692;SDS011;41590;53.366;5.212;2023-11-19T04:25:09;59.38;;;8.57;;
55692;SDS011;41590;53.366;5.212;2023-11-19T04:27:40;52.33;;;7.95;;
55692;SDS011;41590;53.366;5.212;2023-11-19T04:30:10;49.92;;;8.35;;
55692;SDS011;41590;53.366;5.212;2023-11-19T04:32:39;58.40;;;8.43;;
55692;SDS011;41590;53.366;5.212;2023-11-19T04:35:07;49.50;;;7.43;;
55692;SDS011;41590;53.366;5.212;2023-11-19T04:37:38;54.80;;;9.15;;
55692;SDS011;41590;53.366;5.212;2023-11-19T04:40:08;51.45;;;8.48;;
55692;SDS011;41590;53.366;5.212;2023-11-19T04:42:39;53.60;;;8.57;;
55692;SDS011;41590;53.366;5.212;2023-11-19T04:45:08;62.50;;;8.80;;
55692;SDS011;41590;53.366;5.212;2023-11-19T04:47:36;57.65;;;9.55;;
55692;SDS011;41590;53.366;5.212;2023-11-19T04:52:36;52.38;;;8.52;;
55692;SDS011;41590;53.366;5.212;2023-11-19T04:57:43;56.92;;;8.77;;
55692;SDS011;41590;53.366;5.212;2023-11-19T05:00:15;53.03;;;8.50;;
55692;SDS011;41590;53.366;5.212;2023-11-19T05:02:47;53.83;;;8.95;;
55692;SDS011;41590;53.366;5.212;2023-11-19T05:05:22;55.97;;;8.45;;
55692;SDS011;41590;53.366;5.212;2023-11-19T05:08:02;56.78;;;9.95;;
55692;SDS011;41590;53.366;5.212;2023-11-19T05:10:38;52.60;;;8.70;;
55692;SDS011;41590;53.366;5.212;2023-11-19T05:13:07;54.45;;;9.20;;
55692;SDS011;41590;53.366;5.212;2023-11-19T05:15:33;57.53;;;9.18;;
55692;SDS011;41590;53.366;5.212;2023-11-19T05:17:59;48.92;;;8.35;;
55692;SDS011;41590;53.366;5.212;2023-11-19T05:20:26;41.00;;;7.13;;
55692;SDS011;41590;53.366;5.212;2023-11-19T05:22:52;40.65;;;6.32;;
55692;SDS011;41590;53.366;5.212;2023-11-19T05:25:19;55.33;;;8.73;;
55692;SDS011;41590;53.366;5.212;2023-11-19T05:27:48;66.45;;;9.25;;
55692;SDS011;41590;53.366;5.212;2023-11-19T05:30:17;72.55;;;10.15;;
55692;SDS011;41590;53.366;5.212;2023-11-19T05:32:45;72.03;;;9.80;;
55692;SDS011;41590;53.366;5.212;2023-11-19T05:35:16;52.83;;;7.28;;
55692;SDS011;41590;53.366;5.212;2023-11-19T05:37:47;54.47;;;9.60;;
55692;SDS011;41590;53.366;5.212;2023-11-19T05:40:18;60.08;;;9.02;;
55692;SDS011;41590;53.366;5.212;2023-11-19T05:42:50;51.15;;;9.00;;
55692;SDS011;41590;53.366;5.212;2023-11-19T05:45:16;58.75;;;8.60;;
55692;SDS011;41590;53.366;5.212;2023-11-19T05:47:44;60.50;;;8.82;;
55692;SDS011;41590;53.366;5.212;2023-11-19T05:50:10;48.33;;;9.15;;
55692;SDS011;41590;53.366;5.212;2023-11-19T05:55:06;57.80;;;8.95;;
55692;SDS011;41590;53.366;5.212;2023-11-19T05:57:38;50.05;;;7.80;;
55692;SDS011;41590;53.366;5.212;2023-11-19T06:00:07;54.65;;;8.35;;
55692;SDS011;41590;53.366;5.212;2023-11-19T06:02:36;60.08;;;8.73;;
55692;SDS011;41590;53.366;5.212;2023-11-19T06:05:04;63.13;;;10.00;;
55692;SDS011;41590;53.366;5.212;2023-11-19T06:07:38;52.65;;;8.43;;
55692;SDS011;41590;53.366;5.212;2023-11-19T06:10:05;61.75;;;8.90;;
55692;SDS011;41590;53.366;5.212;2023-11-19T06:17:36;65.20;;;9.18;;
55692;SDS011;41590;53.366;5.212;2023-11-19T06:20:05;59.25;;;9.05;;
55692;SDS011;41590;53.366;5.212;2023-11-19T06:22:32;50.28;;;7.40;;
55692;SDS011;41590;53.366;5.212;2023-11-19T06:24:59;74.13;;;10.75;;
55692;SDS011;41590;53.366;5.212;2023-11-19T06:27:28;69.65;;;9.55;;
55692;SDS011;41590;53.366;5.212;2023-11-19T06:29:57;57.10;;;8.70;;
55692;SDS011;41590;53.366;5.212;2023-11-19T06:35:00;55.67;;;9.25;;
55692;SDS011;41590;53.366;5.212;2023-11-19T06:37:30;42.63;;;7.32;;
55692;SDS011;41590;53.366;5.212;2023-11-19T06:39:59;58.47;;;10.18;;
55692;SDS011;41590;53.366;5.212;2023-11-19T06:45:17;61.83;;;9.05;;
55692;SDS011;41590;53.366;5.212;2023-11-19T06:47:45;52.92;;;9.13;;
55692;SDS011;41590;53.366;5.212;2023-11-19T06:50:17;52.17;;;8.50;;
55692;SDS011;41590;53.366;5.212;2023-11-19T06:52:49;61.38;;;9.02;;
55692;SDS011;41590;53.366;5.212;2023-11-19T06:55:16;55.73;;;8.57;;
55692;SDS011;41590;53.366;5.212;2023-11-19T06:57:42;57.47;;;10.52;;
55692;SDS011;41590;53.366;5.212;2023-11-19T07:00:08;61.90;;;8.32;;
55692;SDS011;41590;53.366;5.212;2023-11-19T07:02:36;64.07;;;10.32;;
55692;SDS011;41590;53.366;5.212;2023-11-19T07:05:07;48.65;;;7.85;;
55692;SDS011;41590;53.366;5.212;2023-11-19T07:07:33;61.42;;;9.85;;
55692;SDS011;41590;53.366;5.212;2023-11-19T07:10:01;57.88;;;8.38;;
55692;SDS011;41590;53.366;5.212;2023-11-19T07:12:28;59.22;;;8.98;;
55692;SDS011;41590;53.366;5.212;2023-11-19T07:14:55;62.53;;;9.52;;
55692;SDS011;41590;53.366;5.212;2023-11-19T07:17:27;51.80;;;9.25;;
55692;SDS011;41590;53.366;5.212;2023-11-19T07:19:57;55.60;;;8.63;;
55692;SDS011;41590;53.366;5.212;2023-11-19T07:22:29;46.63;;;7.45;;
55692;SDS011;41590;53.366;5.212;2023-11-19T07:24:59;44.20;;;7.80;;
55692;SDS011;41590;53.366;5.212;2023-11-19T07:27:28;56.60;;;8.88;;
55692;SDS011;41590;53.366;5.212;2023-11-19T07:29:57;55.42;;;8.98;;
55692;SDS011;41590;53.366;5.212;2023-11-19T07:32:26;54.70;;;8.87;;
55692;SDS011;41590;53.366;5.212;2023-11-19T07:35:03;63.42;;;9.60;;
55692;SDS011;41590;53.366;5.212;2023-11-19T07:37:48;52.72;;;7.20;;
55692;SDS011;41590;53.366;5.212;2023-11-19T07:40:38;50.13;;;8.35;;
55692;SDS011;41590;53.366;5.212;2023-11-19T07:43:09;55.28;;;9.98;;
55692;SDS011;41590;53.366;5.212;2023-11-19T07:45:36;58.22;;;8.68;;
55692;SDS011;41590;53.366;5.212;2023-11-19T07:48:03;55.00;;;8.73;;
55692;SDS011;41590;53.366;5.212;2023-11-19T07:50:30;50.65;;;8.73;;
55692;SDS011;41590;53.366;5.212;2023-11-19T07:53:01;59.72;;;8.40;;
55692;SDS011;41590;53.366;5.212;2023-11-19T07:55:29;49.65;;;7.82;;
55692;SDS011;41590;53.366;5.212;2023-11-19T07:57:57;59.90;;;10.20;;
55692;SDS011;41590;53.366;5.212;2023-11-19T08:00:23;51.35;;;8.63;;
55692;SDS011;41590;53.366;5.212;2023-11-19T08:02:50;46.38;;;7.82;;
55692;SDS011;41590;53.366;5.212;2023-11-19T08:05:19;54.80;;;7.95;;
55692;SDS011;41590;53.366;5.212;2023-11-19T08:07:45;56.45;;;7.97;;
55692;SDS011;41590;53.366;5.212;2023-11-19T08:10:16;56.35;;;8.63;;
55692;SDS011;41590;53.366;5.212;2023-11-19T08:12:42;50.83;;;7.50;;
55692;SDS011;41590;53.366;5.212;2023-11-19T08:15:11;70.07;;;10.45;;
55692;SDS011;41590;53.366;5.212;2023-11-19T08:17:44;62.22;;;10.45;;
55692;SDS011;41590;53.366;5.212;2023-11-19T08:20:14;38.45;;;6.50;;
55692;SDS011;41590;53.366;5.212;2023-11-19T08:22:50;43.88;;;7.22;;
55692;SDS011;41590;53.366;5.212;2023-11-19T08:25:33;56.58;;;8.32;;
55692;SDS011;41590;53.366;5.212;2023-11-19T08:28:13;51.03;;;8.48;;
55692;SDS011;41590;53.366;5.212;2023-11-19T08:30:40;59.22;;;8.50;;
55692;SDS011;41590;53.366;5.212;2023-11-19T08:33:07;48.05;;;8.50;;
55692;SDS011;41590;53.366;5.212;2023-11-19T08:35:35;44.90;;;7.60;;
55692;SDS011;41590;53.366;5.212;2023-11-19T08:38:02;48.78;;;8.68;;
55692;SDS011;41590;53.366;5.212;2023-11-19T08:40:50;53.97;;;7.90;;
55692;SDS011;41590;53.366;5.212;2023-11-19T08:52:28;59.72;;;9.73;;
55692;SDS011;41590;53.366;5.212;2023-11-19T08:55:05;57.17;;;9.48;;
55692;SDS011;41590;53.366;5.212;2023-11-19T08:57:37;56.25;;;8.93;;
55692;SDS011;41590;53.366;5.212;2023-11-19T09:03:06;52.25;;;8.43;;
55692;SDS011;41590;53.366;5.212;2023-11-19T09:05:36;59.63;;;9.82;;
55692;SDS011;41590;53.366;5.212;2023-11-19T09:13:21;50.40;;;8.07;;
55692;SDS011;41590;53.366;5.212;2023-11-19T09:15:50;49.60;;;8.30;;
55692;SDS011;41590;53.366;5.212;2023-11-19T09:18:16;48.38;;;8.85;;
55692;SDS011;41590;53.366;5.212;2023-11-19T09:23:20;54.78;;;8.98;;
55692;SDS011;41590;53.366;5.212;2023-11-19T09:29:23;44.95;;;8.02;;
55692;SDS011;41590;53.366;5.212;2023-11-19T09:35:11;63.00;;;9.88;;
55692;SDS011;41590;53.366;5.212;2023-11-19T09:37:55;40.22;;;6.78;;
55692;SDS011;41590;53.366;5.212;2023-11-19T09:40:53;43.40;;;7.07;;
55692;SDS011;41590;53.366;5.212;2023-11-19T09:43:20;40.85;;;6.93;;
55692;SDS011;41590;53.366;5.212;2023-11-19T09:45:48;52.10;;;8.60;;
55692;SDS011;41590;53.366;5.212;2023-11-19T09:48:20;45.45;;;7.65;;
55692;SDS011;41590;53.366;5.212;2023-11-19T09:50:48;71.35;;;8.38;;
55692;SDS011;41590;53.366;5.212;2023-11-19T09:53:15;52.22;;;7.88;;
55692;SDS011;41590;53.366;5.212;2023-11-19T09:55:56;55.45;;;8.95;;
55692;SDS011;41590;53.366;5.212;2023-11-19T09:58:25;36.93;;;6.17;;
55692;SDS011;41590;53.366;5.212;2023-11-19T10:01:05;38.47;;;5.47;;
55692;SDS011;41590;53.366;5.212;2023-11-19T10:03:36;54.00;;;8.00;;
55692;SDS011;41590;53.366;5.212;2023-11-19T10:06:26;43.50;;;6.85;;
55692;SDS011;41590;53.366;5.212;2023-11-19T10:09:01;58.25;;;7.63;;
55692;SDS011;41590;53.366;5.212;2023-11-19T10:11:44;50.28;;;7.70;;
55692;SDS011;41590;53.366;5.212;2023-11-19T10:14:10;50.22;;;7.72;;
55692;SDS011;41590;53.366;5.212;2023-11-19T10:16:52;56.70;;;8.07;;
55692;SDS011;41590;53.366;5.212;2023-11-19T10:19:58;44.90;;;7.90;;
55692;SDS011;41590;53.366;5.212;2023-11-19T10:22:31;39.38;;;6.57;;
55692;SDS011;41590;53.366;5.212;2023-11-19T10:25:39;51.85;;;8.00;;
55692;SDS011;41590;53.366;5.212;2023-11-19T10:28:10;48.95;;;7.13;;
55692;SDS011;41590;53.366;5.212;2023-11-19T10:30:39;61.13;;;9.93;;
55692;SDS011;41590;53.366;5.212;2023-11-19T10:36:55;50.65;;;7.40;;
55692;SDS011;41590;53.366;5.212;2023-11-19T10:41:49;52.72;;;7.75;;
55692;SDS011;41590;53.366;5.212;2023-11-19T10:44:34;48.47;;;7.10;;
55692;SDS011;41590;53.366;5.212;2023-11-19T10:47:01;55.50;;;8.02;;
55692;SDS011;41590;53.366;5.212;2023-11-19T10:49:29;56.50;;;8.75;;
55692;SDS011;41590;53.366;5.212;2023-11-19T10:51:56;50.22;;;8.18;;
55692;SDS011;41590;53.366;5.212;2023-11-19T11:09:09;50.72;;;6.63;;
55692;SDS011;41590;53.366;5.212;2023-11-19T11:38:06;44.70;;;6.57;;
55692;SDS011;41590;53.366;5.212;2023-11-19T11:40:35;41.88;;;6.88;;
55692;SDS011;41590;53.366;5.212;2023-11-19T11:43:03;36.53;;;6.60;;
55692;SDS011;41590;53.366;5.212;2023-11-19T11:45:41;54.40;;;8.32;;
55692;SDS011;41590;53.366;5.212;2023-11-19T11:48:19;37.70;;;5.88;;
55692;SDS011;41590;53.366;5.212;2023-11-19T11:50:53;38.45;;;5.88;;
55692;SDS011;41590;53.366;5.212;2023-11-19T11:53:25;49.33;;;7.22;;
55692;SDS011;41590;53.366;5.212;2023-11-19T11:58:47;39.35;;;5.88;;
55692;SDS011;41590;53.366;5.212;2023-11-19T12:10:08;43.28;;;6.28;;
55692;SDS011;41590;53.366;5.212;2023-11-19T12:12:37;43.20;;;6.38;;
55692;SDS011;41590;53.366;5.212;2023-11-19T12:15:08;43.30;;;6.68;;
55692;SDS011;41590;53.366;5.212;2023-11-19T12:17:51;41.50;;;7.85;;
55692;SDS011;41590;53.366;5.212;2023-11-19T12:20:22;40.38;;;7.85;;
55692;SDS011;41590;53.366;5.212;2023-11-19T12:22:59;42.35;;;6.20;;
55692;SDS011;41590;53.366;5.212;2023-11-19T12:25:30;43.42;;;6.78;;
55692;SDS011;41590;53.366;5.212;2023-11-19T12:28:03;49.25;;;8.15;;
55692;SDS011;41590;53.366;5.212;2023-11-19T12:30:35;47.90;;;6.75;;
55692;SDS011;41590;53.366;5.212;2023-11-19T12:33:07;47.53;;;6.57;;
55692;SDS011;41590;53.366;5.212;2023-11-19T12:35:39;39.50;;;6.55;;
55692;SDS011;41590;53.366;5.212;2023-11-19T12:38:07;43.05;;;7.45;;
55692;SDS011;41590;53.366;5.212;2023-11-19T12:40:34;47.85;;;6.65;;
55692;SDS011;41590;53.366;5.212;2023-11-19T12:43:01;54.10;;;8.93;;
55692;SDS011;41590;53.366;5.212;2023-11-19T12:45:36;54.22;;;8.30;;
55692;SDS011;41590;53.366;5.212;2023-11-19T12:48:04;58.78;;;8.85;;
55692;SDS011;41590;53.366;5.212;2023-11-19T12:53:29;45.05;;;8.00;;
55692;SDS011;41590;53.366;5.212;2023-11-19T12:56:16;30.42;;;5.57;;
55692;SDS011;41590;53.366;5.212;2023-11-19T12:58:48;53.85;;;7.40;;
55692;SDS011;41590;53.366;5.212;2023-11-19T13:01:18;39.65;;;5.65;;
55692;SDS011;41590;53.366;5.212;2023-11-19T13:03:45;43.55;;;7.10;;
55692;SDS011;41590;53.366;5.212;2023-11-19T13:06:12;51.70;;;7.60;;
55692;SDS011;41590;53.366;5.212;2023-11-19T13:08:45;44.30;;;6.78;;
55692;SDS011;41590;53.366;5.212;2023-11-19T13:14:15;42.58;;;7.03;;
55692;SDS011;41590;53.366;5.212;2023-11-19T13:16:44;43.55;;;6.63;;
55692;SDS011;41590;53.366;5.212;2023-11-19T13:19:13;39.72;;;6.15;;
55692;SDS011;41590;53.366;5.212;2023-11-19T13:21:43;43.03;;;7.80;;
55692;SDS011;41590;53.366;5.212;2023-11-19T13:26:50;44.58;;;6.20;;
55692;SDS011;41590;53.366;5.212;2023-11-19T13:29:17;42.55;;;7.72;;
55692;SDS011;41590;53.366;5.212;2023-11-19T13:31:51;51.08;;;7.40;;
55692;SDS011;41590;53.366;5.212;2023-11-19T13:34:26;39.40;;;7.13;;
55692;SDS011;41590;53.366;5.212;2023-11-19T13:36:53;42.65;;;6.80;;
55692;SDS011;41590;53.366;5.212;2023-11-19T13:39:20;46.15;;;6.00;;
55692;SDS011;41590;53.366;5.212;2023-11-19T13:41:49;42.45;;;7.30;;
55692;SDS011;41590;53.366;5.212;2023-11-19T13:44:19;44.90;;;6.22;;
55692;SDS011;41590;53.366;5.212;2023-11-19T13:46:47;43.90;;;6.68;;
55692;SDS011;41590;53.366;5.212;2023-11-19T13:49:14;50.22;;;7.22;;
55692;SDS011;41590;53.366;5.212;2023-11-19T13:51:40;54.50;;;8.77;;
55692;SDS011;41590;53.366;5.212;2023-11-19T13:54:08;39.92;;;6.05;;
55692;SDS011;41590;53.366;5.212;2023-11-19T13:56:35;33.45;;;6.35;;
55692;SDS011;41590;53.366;5.212;2023-11-19T13:59:03;46.17;;;7.47;;
55692;SDS011;41590;53.366;5.212;2023-11-19T14:01:32;44.90;;;6.22;;
55692;SDS011;41590;53.366;5.212;2023-11-19T14:04:04;35.08;;;6.05;;
55692;SDS011;41590;53.366;5.212;2023-11-19T14:06:31;43.10;;;5.70;;
55692;SDS011;41590;53.366;5.212;2023-11-19T14:08:58;46.45;;;6.97;;
55692;SDS011;41590;53.366;5.212;2023-11-19T14:11:25;48.10;;;6.97;;
55692;SDS011;41590;53.366;5.212;2023-11-19T14:13:54;48.08;;;6.70;;
55692;SDS011;41590;53.366;5.212;2023-11-19T14:16:21;44.67;;;6.50;;
55692;SDS011;41590;53.366;5.212;2023-11-19T14:21:37;34.95;;;5.97;;
55692;SDS011;41590;53.366;5.212;2023-11-19T14:26:45;44.55;;;6.85;;
55692;SDS011;41590;53.366;5.212;2023-11-19T14:29:12;54.50;;;6.82;;
55692;SDS011;41590;53.366;5.212;2023-11-19T14:31:42;49.75;;;7.30;;
55692;SDS011;41590;53.366;5.212;2023-11-19T14:34:08;47.05;;;7.50;;
55692;SDS011;41590;53.366;5.212;2023-11-19T14:36:38;46.28;;;7.65;;
55692;SDS011;41590;53.366;5.212;2023-11-19T14:39:13;52.75;;;7.63;;
55692;SDS011;41590;53.366;5.212;2023-11-19T14:41:40;53.42;;;7.38;;
55692;SDS011;41590;53.366;5.212;2023-11-19T14:44:26;52.50;;;7.28;;
55692;SDS011;41590;53.366;5.212;2023-11-19T14:49:23;51.05;;;7.65;;
55692;SDS011;41590;53.366;5.212;2023-11-19T14:52:00;45.05;;;7.07;;
55692;SDS011;41590;53.366;5.212;2023-11-19T14:54:29;45.58;;;6.10;;
55692;SDS011;41590;53.366;5.212;2023-11-19T14:57:01;44.30;;;6.03;;
55692;SDS011;41590;53.366;5.212;2023-11-19T15:02:15;50.50;;;6.95;;
55692;SDS011;41590;53.366;5.212;2023-11-19T15:04:45;47.38;;;6.95;;
55692;SDS011;41590;53.366;5.212;2023-11-19T15:31:46;46.85;;;7.72;;
55692;SDS011;41590;53.366;5.212;2023-11-19T15:37:51;47.00;;;6.82;;
55692;SDS011;41590;53.366;5.212;2023-11-19T15:43:39;39.67;;;5.45;;
55692;SDS011;41590;53.366;5.212;2023-11-19T15:49:28;42.83;;;7.18;;
55692;SDS011;41590;53.366;5.212;2023-11-19T15:51:56;28.67;;;3.75;;
55692;SDS011;41590;53.366;5.212;2023-11-19T15:57:37;49.72;;;6.70;;
55692;SDS011;41590;53.366;5.212;2023-11-19T16:00:05;52.20;;;6.72;;
55692;SDS011;41590;53.366;5.212;2023-11-19T16:02:38;40.45;;;6.18;;
55692;SDS011;41590;53.366;5.212;2023-11-19T16:08:05;47.50;;;6.57;;
55692;SDS011;41590;53.366;5.212;2023-11-19T17:24:58;81.45;;;8.15;;
55692;SDS011;41590;53.366;5.212;2023-11-19T17:27:43;62.95;;;8.50;;
55692;SDS011;41590;53.366;5.212;2023-11-19T17:30:12;56.38;;;6.28;;
55692;SDS011;41590;53.366;5.212;2023-11-19T17:32:43;52.42;;;6.50;;
55692;SDS011;41590;53.366;5.212;2023-11-19T17:37:51;64.32;;;7.32;;
55692;SDS011;41590;53.366;5.212;2023-11-19T17:40:17;75.78;;;8.52;;
55692;SDS011;41590;53.366;5.212;2023-11-19T17:49:19;50.70;;;5.78;;
55692;SDS011;41590;53.366;5.212;2023-11-19T17:54:43;57.75;;;5.80;;
55692;SDS011;41590;53.366;5.212;2023-11-19T18:03:18;25.08;;;3.40;;
55692;SDS011;41590;53.366;5.212;2023-11-19T18:05:46;36.42;;;4.18;;
55692;SDS011;41590;53.366;5.212;2023-11-19T18:08:23;37.25;;;5.07;;
55692;SDS011;41590;53.366;5.212;2023-11-19T18:13:33;18.67;;;2.30;;
55692;SDS011;41590;53.366;5.212;2023-11-19T18:16:08;35.10;;;3.00;;
55692;SDS011;41590;53.366;5.212;2023-11-19T18:23:58;37.92;;;4.28;;
55692;SDS011;41590;53.366;5.212;2023-11-19T18:29:24;44.72;;;4.80;;
55692;SDS011;41590;53.366;5.212;2023-11-19T18:34:27;52.40;;;5.57;;
55692;SDS011;41590;53.366;5.212;2023-11-19T18:37:11;72.05;;;7.38;;
55692;SDS011;41590;53.366;5.212;2023-11-19T18:39:45;68.38;;;6.88;;
55692;SDS011;41590;53.366;5.212;2023-11-19T18:42:12;71.75;;;7.47;;
55692;SDS011;41590;53.366;5.212;2023-11-19T18:44:52;97.15;;;9.07;;
55692;SDS011;41590;53.366;5.212;2023-11-19T18:47:39;86.18;;;8.93;;
55692;SDS011;41590;53.366;5.212;2023-11-19T18:50:08;71.32;;;7.53;;
55692;SDS011;41590;53.366;5.212;2023-11-19T18:52:52;49.90;;;5.68;;
55692;SDS011;41590;53.366;5.212;2023-11-19T18:55:21;52.92;;;5.28;;
55692;SDS011;41590;53.366;5.212;2023-11-19T18:58:10;41.33;;;5.63;;
55692;SDS011;41590;53.366;5.212;2023-11-19T19:00:44;78.35;;;6.70;;
55692;SDS011;41590;53.366;5.212;2023-11-19T19:03:18;29.25;;;3.67;;
55692;SDS011;41590;53.366;5.212;2023-11-19T19:09:08;20.40;;;2.63;;
55692;SDS011;41590;53.366;5.212;2023-11-19T19:11:35;47.45;;;4.78;;
55692;SDS011;41590;53.366;5.212;2023-11-19T19:14:10;49.33;;;5.68;;
55692;SDS011;41590;53.366;5.212;2023-11-19T19:16:38;47.58;;;5.22;;
55692;SDS011;41590;53.366;5.212;2023-11-19T19:19:05;34.45;;;4.00;;
55692;SDS011;41590;53.366;5.212;2023-11-19T19:21:38;27.90;;;2.92;;
55692;SDS011;41590;53.366;5.212;2023-11-19T20:08:57;38.78;;;3.20;;
55692;SDS011;41590;53.366;5.212;2023-11-19T20:24:23;22.95;;;1.92;;
55692;SDS011;41590;53.366;5.212;2023-11-19T20:27:07;18.92;;;2.45;;
55692;SDS011;41590;53.366;5.212;2023-11-19T20:39:09;18.35;;;1.60;;
55692;SDS011;41590;53.366;5.212;2023-11-19T20:41:44;28.98;;;2.60;;
55692;SDS011;41590;53.366;5.212;2023-11-19T20:44:10;30.80;;;3.85;;
55692;SDS011;41590;53.366;5.212;2023-11-19T20:46:44;58.70;;;5.13;;
55692;SDS011;41590;53.366;5.212;2023-11-19T20:49:29;50.58;;;4.47;;
55692;SDS011;41590;53.366;5.212;2023-11-19T20:51:56;34.25;;;3.65;;
55692;SDS011;41590;53.366;5.212;2023-11-19T21:01:28;38.08;;;4.63;;
55692;SDS011;41590;53.366;5.212;2023-11-19T21:03:56;47.22;;;4.55;;
55692;SDS011;41590;53.366;5.212;2023-11-19T21:06:27;34.78;;;3.28;;
55692;SDS011;41590;53.366;5.212;2023-11-19T21:14:40;30.38;;;3.72;;
55692;SDS011;41590;53.366;5.212;2023-11-19T21:17:07;31.85;;;4.05;;
55692;SDS011;41590;53.366;5.212;2023-11-19T21:26:18;35.22;;;4.43;;